Terminal Aerodrome Forecast
Issued by NWS

Home | Current Version | Previous Version | Text Only | Print | Product List | Glossary On
Versions: 1 2 3 4 5 6 7 8 9 10 11 12 13 14 15 16 17 18 19 20
000
FTUS43 KGRB 262000 AAA
TAFAUW
TAF AMD
KAUW 262048Z 2621/2718 32006G15KT P6SM SCT025
     FM262300 30004KT P6SM SKC
     FM271400 26008KT P6SM SKC=

USA.gov is the U.S. government's official web portal to all federal, state and local government web resources and services.